KAPG/APG METAR and TAF weather

Enter ICAO airport designator
Station Type Date Time Source
KAPG METAR 2018/04/21 10:58 UTC NOAA

KAPG 211058Z AUTO 00000KT 10SM CLR M01/M03 A3047 RMK AO2 SLP322 T10061026 $


Station Type Date Time Source
KAPG Decoded METAR 2018/04/21 10:58 UTC NOAA

Phillips Army Air Field / Aberdeen, MD, United States (KAPG) 39-28N 076-10W
Apr 21, 2018 - 06:58 AM EDT / 2018.04.21 1058 UTC
Wind: Calm:0
Visibility: 10 mile(s):0
Sky conditions: clear
Temperature: 30.9 F (-0.6 C)
Dew Point: 27.3 F (-2.6 C)
Relative Humidity: 86%
Pressure (altimeter): 30.47 in. Hg (1031 hPa)
ob: KAPG 211058Z AUTO 00000KT 10SM CLR M01/M03 A3047 RMK AO2 SLP322 T10061026
cycle: 11

Station Type Date Time Source
KAPG TAF UTC NOAA

Error!


Example: see airport list